Camden, Michigan
Current Conditions -  °F | °C
As of 2:55 PM on Saturday 25 Oct 2014 (Local Time) from KJYM Reporting Station
Clear Clear  
Wind Chill: 67°   Ceiling: Unl
Heat Index: 67°   Visibility: 10mi
Dew Point: 45°   Wind: 16mph
Humidity: 44%   Direction: 270°W
Pressure: 29.81"   Gusts: 25mph
Location:  41.75°N, 84.76°W
Report Text: KJYM 251855Z AUTO 27014G22KT 10SM CLR 20/07 A2981 RMK AO2 T01970071
Loading
Personal Weather Stations






























Interactive Weather Map
Tropical Storm Tracking
New forecast layout! Learn more

10-Day Weather Forecast

Advertisements
Track Severe Weather on mobile